Latest Weather Observations for Westmere

IDV60801

Issued at 10:05 pm EST Thursday 17 April 2014 (issued every 30 minutes, with the page automatically refreshed every 10 minutes)

About weather observations | Map of weather stations | Latest weather observations for VIC | Other Formats
Station Details ID: 089112 Name: WESTMERE Lat: -37.71 Lon: 142.94 Height: 226.0 m
Data from the previous 72 hours. | See also: Recent months at Westmere
Date/Time
EST
Temp
°C
App
Temp
°C
Dew
Point
Rel
Hum
%
Delta-T
°C
Wind Press
QNH
hPa
Press
MSL
hPa
Rain
since 9 am
mm
Dir
 
Spd
km/h
Gust
km/h
Spd
kts
Gust
kts
17/10:00pm 11.3 10.7 10.4 94 0.5 SSW 4 6 2 3 1019.2 1019.1 0.0
17/09:30pm 13.1 13.3 11.8 92 0.7 SSW 2 6 1 3 1019.4 - 0.0
17/09:00pm 14.1 14.2 12.8 92 0.7 SSW 4 7 2 4 1019.4 1019.3 0.0
17/08:30pm 14.3 12.7 12.9 91 0.8 SSW 13 17 7 9 1019.2 - 0.0
17/08:00pm 14.5 13.1 13.4 93 0.6 S 13 17 7 9 1019.1 1019.0 0.0
17/07:30pm 14.6 13.9 13.3 92 0.7 S 9 13 5 7 1018.9 - 0.0
17/07:00pm 15.5 12.8 13.0 85 1.4 S 19 24 10 13 1018.6 1018.4 0.0
17/06:30pm 18.0 16.8 9.4 57 4.6 W 6 9 3 5 1018.2 - 0.0
17/06:00pm 19.0 17.5 9.2 53 5.2 W 7 9 4 5 1018.3 1018.1 0.0
17/05:30pm 20.4 18.0 8.7 47 6.2 W 11 17 6 9 1018.1 - 0.0
17/05:00pm 21.4 18.2 6.9 39 7.5 WNW 13 17 7 9 1018.0 1017.8 0.0
17/04:30pm 22.5 19.3 6.7 36 8.2 NNW 13 19 7 10 1017.9 - 0.0
17/04:00pm 22.4 19.6 7.0 37 8.0 NNW 11 15 6 8 1018.0 1017.8 0.0
17/03:30pm 23.1 20.7 6.8 35 8.5 NNW 9 19 5 10 1018.2 - 0.0
17/03:00pm 23.1 19.5 6.8 35 8.5 NW 15 32 8 17 1018.4 1018.2 0.0
17/02:30pm 22.7 18.7 6.5 35 8.4 NNW 17 24 9 13 1018.6 - 0.0
17/02:00pm 22.7 19.3 6.0 34 8.5 NW 13 20 7 11 1018.6 1018.4 0.0
17/01:30pm 22.7 18.9 6.0 34 8.5 NNW 15 22 8 12 1019.0 - 0.0
17/01:00pm 21.7 19.2 6.4 37 7.8 NNW 9 19 5 10 1019.5 1019.4 0.0
17/12:30pm 21.3 18.6 7.2 40 7.3 NW 11 19 6 10 1020.0 - 0.0
17/12:00pm 21.3 18.6 7.5 41 7.2 N 11 17 6 9 1020.4 1020.3 0.0
17/11:30am 20.4 18.7 8.4 46 6.3 NW 7 15 4 8 1020.7 - 0.0
17/11:00am 19.8 17.7 8.2 47 6.1 NW 9 17 5 9 1020.9 1020.8 0.0
17/10:30am 19.3 17.5 9.5 53 5.2 N 9 17 5 9 1021.0 - 0.0
17/10:00am 17.8 17.4 12.3 70 3.1 NW 6 7 3 4 1021.1 1021.0 0.0
17/09:30am 15.5 15.1 12.3 81 1.8 NW 6 7 3 4 1021.2 - 0.0
17/09:00am 12.3 12.5 11.7 96 0.3 WSW 2 6 1 3 1021.1 1021.0 0.0
17/08:30am 10.6 10.8 10.4 99 0.1 CALM 0 0 0 0 1021.0 - 0.0
17/08:00am 8.4 7.6 8.3 99 0.0 NNE 2 4 1 2 1020.9 1020.8 0.0
17/07:30am 5.3 4.2 5.2 99 0.0 CALM 0 0 0 0 1020.7 - 0.0
17/07:00am 5.4 4.0 5.3 99 0.0 N 2 6 1 3 1020.3 1020.2 0.0
17/06:30am 4.1 2.8 4.0 99 0.0 CALM 0 0 0 0 1020.1 - 0.0
17/06:00am 4.7 3.5 4.6 99 0.0 N 0 0 0 0 1020.1 1020.0 0.0
17/05:30am 4.7 3.5 4.6 99 0.0 CALM 0 0 0 0 1020.0 - 0.0
17/05:00am 5.0 3.9 4.9 99 0.0 CALM 0 0 0 0 1020.0 1019.9 0.0
17/04:30am 6.3 5.4 6.2 99 0.0 CALM 0 0 0 0 1019.7 - 0.0
17/04:00am 6.0 5.1 5.9 99 0.0 CALM 0 0 0 0 1019.7 1019.6 0.0
17/03:30am 6.8 4.7 6.7 99 0.0 N 7 9 4 5 1019.6 - 0.0
17/03:00am 7.1 6.4 7.0 99 0.0 CALM 0 0 0 0 1019.6 1019.5 0.0
17/02:30am 6.6 5.7 6.2 97 0.2 CALM 0 0 0 0 1019.7 - 0.0
17/02:00am 8.1 7.5 7.5 96 0.3 CALM 0 0 0 0 1019.8 1019.7 0.0
17/01:30am 8.8 8.4 8.2 96 0.3 CALM 0 0 0 0 1019.9 - 0.0
17/01:00am 10.1 10.0 9.3 95 0.4 CALM 0 0 0 0 1019.9 1019.8 0.0
17/12:30am 11.0 11.0 9.9 93 0.6 CALM 0 0 0 0 1020.0 - 0.0
17/12:00am 11.4 10.7 10.0 91 0.7 SSW 4 6 2 3 1019.9 1019.8 0.0
 
Date/Time
EST
Temp
°C
App
Temp
°C
Dew
Point
Rel
Hum
%
Delta-T
°C
Wind Press
QNH
hPa
Press
MSL
hPa
Rain
since 9 am
mm
Dir
 
Spd
km/h
Gust
km/h
Spd
kts
Gust
kts
16/11:30pm 12.2 12.4 10.6 90 0.8 CALM 0 0 0 0 1020.0 - 0.0
16/11:00pm 12.3 12.5 10.7 90 0.8 CALM 0 0 0 0 1020.2 1020.1 0.0
16/10:30pm 12.1 12.3 10.5 90 0.8 CALM 0 0 0 0 1020.2 - 0.0
16/10:00pm 12.7 13.1 11.1 90 0.8 CALM 0 2 0 1 1020.2 1020.1 0.0
16/09:30pm 13.2 12.2 11.1 87 1.1 SSW 7 11 4 6 1020.3 - 0.0
16/09:00pm 13.1 12.2 10.6 85 1.3 SSW 6 9 3 5 1020.0 1019.9 0.0
16/08:30pm 13.9 12.1 9.5 75 2.3 E 9 11 5 6 1019.1 - 0.0
16/08:00pm 13.5 12.1 9.0 74 2.3 S 6 7 3 4 1019.3 1019.2 0.0
16/07:30pm 14.5 13.6 9.3 71 2.7 S 4 4 2 2 1019.7 - 0.0
16/07:00pm 14.8 14.0 9.6 71 2.7 S 4 6 2 3 1019.7 1019.6 0.0
16/06:30pm 16.0 14.3 9.9 67 3.2 S 9 11 5 6 1019.5 - 0.0
16/06:00pm 16.9 14.3 9.3 61 4.0 S 13 19 7 10 1019.2 1019.1 0.0
16/05:30pm 18.8 16.4 8.7 52 5.3 W 11 19 6 10 1019.0 - 0.0
16/05:00pm 19.4 16.6 8.7 50 5.6 WNW 13 17 7 9 1018.8 1018.6 0.0
16/04:30pm 20.1 17.0 8.8 48 6.0 WNW 15 20 8 11 1018.6 - 0.0
16/04:00pm 20.6 17.1 8.6 46 6.4 W 17 22 9 12 1018.6 1018.4 0.0
16/03:30pm 19.8 17.4 8.5 48 6.0 W 11 19 6 10 1018.6 - 0.0
16/03:00pm 20.3 17.4 8.3 46 6.3 WSW 13 22 7 12 1018.5 1018.3 0.0
16/02:30pm 19.5 17.5 8.5 49 5.8 WSW 9 15 5 8 1018.6 - 0.0
16/02:00pm 19.9 17.9 8.6 48 6.0 WSW 9 20 5 11 1018.8 1018.6 0.0
16/01:30pm 19.3 16.4 8.0 48 5.9 W 13 20 7 11 1019.0 - 0.0
16/01:00pm 20.4 16.8 8.4 46 6.3 NW 17 24 9 13 1019.1 1019.0 0.0
16/12:30pm 19.3 17.8 9.2 52 5.4 NW 7 15 4 8 1019.5 - 0.0
16/12:00pm 17.5 16.4 10.6 64 3.7 NNW 7 13 4 7 1020.0 1019.9 0.0
16/11:30am 16.3 15.4 11.2 72 2.8 N 7 11 4 6 1020.2 - 0.0
16/11:00am 15.1 14.6 11.9 81 1.7 N 6 11 3 6 1020.6 1020.5 0.0
16/10:30am 13.8 12.9 11.5 86 1.2 NNW 7 9 4 5 1020.8 - 0.0
16/10:00am 12.7 12.2 12.1 96 0.3 N 6 9 3 5 1021.0 1020.9 0.0
16/09:30am 11.6 10.9 11.4 99 0.1 NNE 6 7 3 4 1021.0 - 0.0
16/09:00am 11.4 10.6 11.2 99 0.1 N 6 7 3 4 1021.2 1021.1 0.2
16/08:30am 10.9 10.0 10.7 99 0.1 N 6 7 3 4 1021.4 - 0.2
16/08:00am 10.9 10.4 10.7 99 0.1 NNE 4 6 2 3 1021.3 1021.2 0.2
16/07:30am 10.8 11.0 10.6 99 0.1 CALM 0 2 0 1 1021.2 - 0.2
16/07:00am 10.6 10.4 10.4 99 0.1 NNE 2 6 1 3 1020.8 1020.7 0.0
16/06:30am 10.7 9.8 10.5 99 0.1 N 6 7 3 4 1020.8 - 0.0
16/06:00am 10.4 10.5 10.2 99 0.1 CALM 0 0 0 0 1020.7 1020.6 0.0
16/05:30am 10.2 10.3 10.1 99 0.1 CALM 0 0 0 0 1020.9 - 0.0
16/05:00am 9.9 9.9 9.8 99 0.1 CALM 0 0 0 0 1020.7 1020.6 0.0
16/04:30am 9.1 8.9 9.0 99 0.0 CALM 0 0 0 0 1021.2 - 0.0
16/04:00am 8.1 7.6 8.0 99 0.0 CALM 0 0 0 0 1021.3 1021.2 0.0
16/03:30am 7.9 7.4 7.8 99 0.0 CALM 0 0 0 0 1021.6 - 0.0
16/03:00am 5.5 4.1 5.4 99 0.0 W 2 7 1 4 1021.5 1021.4 0.0
16/02:30am 6.0 3.9 5.9 99 0.0 E 6 7 3 4 1021.6 - 0.0
16/02:00am 5.5 4.5 5.4 99 0.0 CALM 0 0 0 0 1021.8 1021.6 0.0
16/01:30am 5.1 4.0 5.0 99 0.0 CALM 0 0 0 0 1021.9 - 0.0
16/01:00am 6.8 6.0 6.7 99 0.0 CALM 0 0 0 0 1022.1 1021.9 0.0
16/12:30am 5.7 4.7 5.4 98 0.1 CALM 0 0 0 0 1022.2 - 0.0
16/12:00am 8.4 8.0 8.3 99 0.0 CALM 0 0 0 0 1022.5 1022.3 0.0
 
Date/Time
EST
Temp
°C
App
Temp
°C
Dew
Point
Rel
Hum
%
Delta-T
°C
Wind Press
QNH
hPa
Press
MSL
hPa
Rain
since 9 am
mm
Dir
 
Spd
km/h
Gust
km/h
Spd
kts
Gust
kts
15/11:30pm 8.6 7.9 8.5 99 0.0 E 2 4 1 2 1022.8 - 0.0
15/11:00pm 7.7 5.9 7.0 95 0.3 E 6 6 3 3 1023.1 1023.0 0.0
15/10:30pm 9.6 8.2 8.8 95 0.4 E 6 6 3 3 1023.3 - 0.0
15/10:00pm 9.9 8.4 9.0 94 0.4 E 7 7 4 4 1023.4 1023.3 0.0
15/09:30pm 10.0 8.0 8.8 92 0.6 E 9 13 5 7 1023.4 - 0.0
15/09:00pm 10.9 8.3 9.2 89 0.9 E 13 15 7 8 1023.3 1023.2 0.0
15/08:30pm 11.2 9.0 9.3 88 1.0 ESE 11 13 6 7 1023.3 - 0.0
15/08:00pm 12.1 10.0 9.7 85 1.2 E 11 15 6 8 1023.2 1023.1 0.0
15/07:30pm 12.7 11.3 9.7 82 1.5 SE 7 11 4 6 1023.1 - 0.0
15/07:00pm 14.1 11.7 9.9 76 2.2 ESE 13 17 7 9 1022.9 1022.8 0.0
15/06:30pm 15.0 13.4 10.2 73 2.5 ESE 9 13 5 7 1022.7 - 0.0
15/06:00pm 15.7 13.7 10.2 70 2.9 ESE 11 13 6 7 1022.3 1022.1 0.0
15/05:30pm 16.9 13.4 10.3 65 3.5 ESE 19 24 10 13 1022.0 - 0.0
15/05:00pm 17.0 13.9 10.4 65 3.5 ESE 17 24 9 13 1021.9 1021.7 0.0
15/04:30pm 17.6 14.5 10.2 62 4.0 SE 17 24 9 13 1021.9 - 0.0
15/04:00pm 18.0 14.8 10.1 60 4.2 ESE 17 20 9 11 1021.6 1021.5 0.0
15/03:30pm 18.8 15.2 10.6 59 4.5 ESE 20 28 11 15 1021.9 - 0.0
15/03:00pm 18.8 16.2 10.6 59 4.5 SE 15 20 8 11 1022.1 1021.9 0.0
15/02:30pm 18.6 16.4 10.7 60 4.3 SSE 13 24 7 13 1022.2 - 0.0
15/02:00pm 17.4 14.0 10.5 64 3.7 SSE 19 24 10 13 1022.4 1022.2 0.0
15/01:30pm 17.7 14.3 10.6 63 3.8 SE 19 24 10 13 1022.7 - 0.0
15/01:00pm 17.4 13.9 11.0 66 3.5 SE 20 28 11 15 1023.2 1023.1 0.0
15/12:30pm 16.6 12.3 10.7 68 3.2 ESE 24 30 13 16 1023.7 - 0.0
15/12:00pm 16.4 12.2 11.1 71 2.9 SSE 24 35 13 19 1024.1 1024.0 0.0
15/11:30am 16.5 13.3 11.4 72 2.8 ESE 19 28 10 15 1024.3 - 0.0
15/11:00am 15.8 12.2 12.0 78 2.1 SE 22 32 12 17 1024.5 1024.4 0.0
15/10:30am 14.7 11.7 12.0 84 1.5 SE 19 26 10 14 1024.6 - 0.0
15/10:00am 13.9 12.0 13.0 94 0.5 SE 15 24 8 13 1024.7 1024.6 0.0
15/09:30am 12.3 11.9 12.3 100 0.0 SW 6 7 3 4 1024.8 - 0.0
15/09:00am 11.0 10.5 10.8 99 0.1 SW 4 6 2 3 1024.8 1024.7 0.0
15/08:30am 10.2 10.3 10.1 99 0.1 CALM 0 0 0 0 1024.9 - 0.0
15/08:00am 9.2 8.3 9.1 99 0.0 SW 4 4 2 2 1024.7 1024.6 0.0
15/07:30am 8.7 8.4 8.6 99 0.0 CALM 0 6 0 3 1024.4 - 0.0
15/07:00am 8.5 8.1 8.4 99 0.0 CALM 0 4 0 2 1024.1 1024.0 0.0
15/06:30am 8.1 7.6 8.0 99 0.0 CALM 0 0 0 0 1023.9 - 0.0
15/06:00am 7.7 7.1 7.6 99 0.0 CALM 0 2 0 1 1023.7 1023.6 0.0
15/05:30am 8.8 7.8 8.7 99 0.0 WSW 4 4 2 2 1023.7 - 0.0
15/05:00am 8.7 7.2 8.6 99 0.0 SSE 6 7 3 4 1023.7 1023.6 0.0
15/04:30am 9.0 8.4 8.9 99 0.0 SSE 2 4 1 2 1023.5 - 0.0
15/04:00am 9.7 8.9 9.6 99 0.1 SSE 4 4 2 2 1023.6 1023.5 0.0
15/03:30am 9.4 9.3 9.3 99 0.1 CALM 0 0 0 0 1023.5 - 0.0
15/03:00am 9.1 8.9 9.0 99 0.0 CALM 0 0 0 0 1023.7 1023.6 0.0
15/02:30am 9.3 9.1 9.2 99 0.0 CALM 0 0 0 0 1023.8 - 0.0
15/02:00am 8.8 8.5 8.7 99 0.0 CALM 0 0 0 0 1023.9 1023.8 0.0
15/01:30am 8.6 8.3 8.5 99 0.0 CALM 0 0 0 0 1024.1 - 0.0
15/01:00am 8.7 8.4 8.6 99 0.0 CALM 0 0 0 0 1024.0 1023.9 0.0
15/12:30am 8.6 8.3 8.5 99 0.0 CALM 0 0 0 0 1024.0 - 0.0
15/12:00am 9.0 8.3 8.7 98 0.1 SSE 2 4 1 2 1024.0 1023.9 0.0
 
Date/Time
EST
Temp
°C
App
Temp
°C
Dew
Point
Rel
Hum
%
Delta-T
°C
Wind Press
QNH
hPa
Press
MSL
hPa
Rain
since 9 am
mm
Dir
 
Spd
km/h
Gust
km/h
Spd
kts
Gust
kts
14/11:30pm 9.1 8.0 8.6 97 0.2 SSE 4 6 2 3 1024.1 - 0.0
14/11:00pm 9.1 7.5 8.6 97 0.2 SSE 7 9 4 5 1024.2 1024.1 0.0
14/10:30pm 9.0 6.9 8.4 96 0.3 SSE 9 11 5 6 1024.3 - 0.0

Other Formats:

Comma delimited format used in spreadsheet applications
http://www.bom.gov.au/fwo/IDV60801/IDV60801.95840.axf

JavaScript Object Notation format (JSON) in row-major order
http://www.bom.gov.au/fwo/IDV60801/IDV60801.95840.json